Arlington, WA

2:44 AM PDT on August 30, 2014 (GMT -0700)
Gleneagle | Change Station
CLOSE
Current Station
Personal Weather Station
Location: Arlington, WA
Elevation: 276 ft
Nearby Weather Stations

Elev 276 ft 48.16 °N, 122.13 °W | Updated 3 seconds ago

Overcast
Overcast
59.2 °F
Feels Like 59.2 °F
N
0.0
Wind Variable Wind from West
Gusts 0.0 mph

Today
High -- | Low -- °F
--% Chance of Precip.
Yesterday
High -- | Low -- °F
Precip. -- in
6:23 AM 7:53 PM
Waxing Crescent, 20% visible
Pressure 29.94 in
Visibility 10.0 miles
Clouds Mostly Cloudy 3400 ft
Overcast 4600 ft
Dew Point 57 °F
Humidity 92%
Rainfall 0.00 in
Snow Depth Not available.
UV 0 out of 12
Pollen .80 out of 12
PM2.5 Good
Flu Activity Not available.
METAR KAWO 300935Z AUTO 00000KT 10SM BKN034 OVC046 15/12 A2994 RMK AO1

More Conditions Fewer Conditions

Pressure 29.94 in
Visibility 10.0 miles
Clouds Mostly Cloudy 3400 ft
Overcast 4600 ft
Dew Point 57 °F
Humidity 92%
Rainfall 0.00 in
Snow Depth Not available.
UV 0 out of 12
Pollen .80 out of 12
PM2.5 Good
Flu Activity Not available.
METAR KAWO 300935Z AUTO 00000KT 10SM BKN034 OVC046 15/12 A2994 RMK AO1

More Conditions Fewer Conditions

10-Day Weather Forecast

Almanac

Astronomy

Aug. 30, 2014 Rise Set
Actual Time 6:23 AM PDT 7:53 PM PDT
Civil Twilight 5:51 AM PDT 8:25 PM PDT
Nautical Twilight 5:11 AM PDT 9:05 PM PDT
Astronomical Twilight 4:28 AM PDT 9:47 PM PDT
Moon 11:41 AM PDT 10:04 PM PDT
Length of Visible Light 14h 34m
Length of Day
13h 29m
Tomorrow will be 3m 21s shorter.
Waxing Crescent, 20% of the Moon is Illuminated
Today
Waxing Crescent
Sep 2
First Quarter
Sep 8
Full
Sep 15
Last Quarter
Sep 24
New

Today's Extremes

State Highs State Lows

Community

WunderPhotos

Upload Photos

1,748,475 photos uploaded!

Nearby

Air Quality

  Air Quality AQ Index Pollutant
Yesterday Good
PM2.5
Current Good
PM2.5
Saturday Good
OZONE
Saturday Good
PM2.5
Sunday Good
OZONE
Sunday Good
PM2.5
Monday Good
OZONE
Monday Good
PM2.5
Tuesday Good
OZONE
Tuesday Good
PM2.5
Wednesday Good
OZONE
Wednesday Good
PM2.5

Snow Depth

Station Depth Elevation
Alpine Meadows 0 in 3500 ft
Elbow Lake 0 in 3200 ft
Skookum Creek 0 in 3920 ft
Mf Nooksack 0 in 4980 ft
Dungeness 0 in 4100 ft

Earthquake Activity

City Distance Mag. Time & Date
No recent earthquake activity has been reported nearby.
Minimum magnitude displayed is 2.5.

Coastal Water Temperatures

Place Temperature
Port Townsend, WA 53.1 °F
Friday Harbor, WA 53.1 °F
Port Angeles, WA 53.1 °F

Nearby Weather Stations